South Oroville, California
Current Conditions -  °F | °C
As of 3:53 PM on Saturday 25 Oct 2014 (Local Time) from KOVE Reporting Station
Light Rain Light Rain  
Wind Chill: 66°   Ceiling: 3500
Heat Index: 66°   Visibility: 10mi
Dew Point: 56°   Wind: 18mph
Humidity: 70%   Direction: 150°SSE
Pressure: 30.01"   Gusts: 26mph
Location:  39.5324°N, 121.648°W
Report Text: KOVE 252253Z AUTO 15016G23KT 10SM -RA BKN035 BKN043 BKN070 19/13 A3001 RMK AO2 LTG DSNT NE RAB12 SLP162 P0001 T01890133
Loading
Personal Weather Stations






























Interactive Weather Map
Tropical Storm Tracking
New forecast layout! Learn more

10-Day Weather Forecast

Advertisements
Track Severe Weather on mobile